sensor_id;sensor_type;location;lat;lon;timestamp;pressure;altitude;pressure_sealevel;temperature;humidity
31761;BME280;18335;51.486;7.562;2022-07-06T00:00:46;101015.41;;;19.34;100.00
31761;BME280;18335;51.486;7.562;2022-07-06T00:03:12;101025.78;;;19.26;100.00
31761;BME280;18335;51.486;7.562;2022-07-06T00:05:39;101023.09;;;19.05;100.00
31761;BME280;18335;51.486;7.562;2022-07-06T00:08:06;101021.75;;;19.28;100.00
31761;BME280;18335;51.486;7.562;2022-07-06T00:10:32;101030.94;;;19.01;100.00
31761;BME280;18335;51.486;7.562;2022-07-06T00:13:00;101021.19;;;19.05;100.00
31761;BME280;18335;51.486;7.562;2022-07-06T00:15:27;101022.75;;;19.21;100.00
31761;BME280;18335;51.486;7.562;2022-07-06T00:17:54;101032.88;;;19.07;100.00
31761;BME280;18335;51.486;7.562;2022-07-06T00:20:20;101034.00;;;19.13;100.00
31761;BME280;18335;51.486;7.562;2022-07-06T00:22:47;101039.78;;;18.90;100.00
31761;BME280;18335;51.486;7.562;2022-07-06T00:25:14;101039.72;;;18.84;100.00
31761;BME280;18335;51.486;7.562;2022-07-06T00:27:41;101041.22;;;18.86;100.00
31761;BME280;18335;51.486;7.562;2022-07-06T00:30:09;101044.44;;;18.90;100.00
31761;BME280;18335;51.486;7.562;2022-07-06T00:32:37;101049.28;;;18.60;100.00
31761;BME280;18335;51.486;7.562;2022-07-06T00:35:04;101049.91;;;18.41;100.00
31761;BME280;18335;51.486;7.562;2022-07-06T00:37:31;101042.38;;;18.49;100.00
31761;BME280;18335;51.486;7.562;2022-07-06T00:39:58;101046.69;;;18.79;100.00
31761;BME280;18335;51.486;7.562;2022-07-06T00:42:25;101042.97;;;18.66;100.00
31761;BME280;18335;51.486;7.562;2022-07-06T00:44:51;101047.22;;;18.90;100.00
31761;BME280;18335;51.486;7.562;2022-07-06T00:47:19;101043.13;;;18.86;100.00
31761;BME280;18335;51.486;7.562;2022-07-06T00:49:46;101050.78;;;18.84;100.00
31761;BME280;18335;51.486;7.562;2022-07-06T00:52:32;101049.38;;;18.73;100.00
31761;BME280;18335;51.486;7.562;2022-07-06T00:54:59;101050.47;;;18.72;100.00
31761;BME280;18335;51.486;7.562;2022-07-06T00:57:27;101051.19;;;18.81;100.00
31761;BME280;18335;51.486;7.562;2022-07-06T00:59:54;101055.75;;;18.95;100.00
31761;BME280;18335;51.486;7.562;2022-07-06T01:02:22;101047.78;;;18.78;100.00
31761;BME280;18335;51.486;7.562;2022-07-06T01:04:49;101052.63;;;18.76;100.00
31761;BME280;18335;51.486;7.562;2022-07-06T01:07:16;101051.28;;;18.94;100.00
31761;BME280;18335;51.486;7.562;2022-07-06T01:09:43;101049.31;;;18.88;100.00
31761;BME280;18335;51.486;7.562;2022-07-06T01:12:10;101048.31;;;18.95;100.00
31761;BME280;18335;51.486;7.562;2022-07-06T01:14:37;101050.66;;;18.70;100.00
31761;BME280;18335;51.486;7.562;2022-07-06T01:17:06;101049.47;;;18.58;100.00
31761;BME280;18335;51.486;7.562;2022-07-06T01:19:35;101053.09;;;18.59;100.00
31761;BME280;18335;51.486;7.562;2022-07-06T01:22:03;101049.97;;;18.47;100.00
31761;BME280;18335;51.486;7.562;2022-07-06T01:24:30;101049.78;;;17.92;100.00
31761;BME280;18335;51.486;7.562;2022-07-06T01:26:57;101051.94;;;18.32;100.00
31761;BME280;18335;51.486;7.562;2022-07-06T01:29:23;101045.47;;;18.25;100.00
31761;BME280;18335;51.486;7.562;2022-07-06T01:31:50;101042.22;;;18.36;100.00
31761;BME280;18335;51.486;7.562;2022-07-06T01:34:18;101047.88;;;18.49;100.00
31761;BME280;18335;51.486;7.562;2022-07-06T01:36:45;101045.88;;;18.43;100.00
31761;BME280;18335;51.486;7.562;2022-07-06T01:39:13;101041.56;;;18.55;100.00
31761;BME280;18335;51.486;7.562;2022-07-06T01:41:40;101048.22;;;18.25;100.00
31761;BME280;18335;51.486;7.562;2022-07-06T01:44:07;101039.88;;;18.54;100.00
31761;BME280;18335;51.486;7.562;2022-07-06T01:46:36;101046.63;;;18.52;100.00
31761;BME280;18335;51.486;7.562;2022-07-06T01:49:03;101038.56;;;18.50;100.00
31761;BME280;18335;51.486;7.562;2022-07-06T01:51:31;101044.34;;;18.55;100.00
31761;BME280;18335;51.486;7.562;2022-07-06T01:53:58;101036.31;;;18.82;100.00
31761;BME280;18335;51.486;7.562;2022-07-06T01:56:27;101045.53;;;18.67;100.00
31761;BME280;18335;51.486;7.562;2022-07-06T01:58:58;101037.44;;;18.66;100.00
31761;BME280;18335;51.486;7.562;2022-07-06T02:01:25;101041.41;;;18.85;100.00
31761;BME280;18335;51.486;7.562;2022-07-06T02:03:51;101039.09;;;18.60;100.00
31761;BME280;18335;51.486;7.562;2022-07-06T02:06:18;101033.75;;;18.02;100.00
31761;BME280;18335;51.486;7.562;2022-07-06T02:08:47;101040.41;;;18.29;100.00
31761;BME280;18335;51.486;7.562;2022-07-06T02:11:14;101031.63;;;18.40;100.00
31761;BME280;18335;51.486;7.562;2022-07-06T02:13:44;101040.19;;;18.45;100.00
31761;BME280;18335;51.486;7.562;2022-07-06T02:16:11;101042.59;;;18.33;100.00
31761;BME280;18335;51.486;7.562;2022-07-06T02:18:39;101047.91;;;18.13;100.00
31761;BME280;18335;51.486;7.562;2022-07-06T02:21:06;101043.44;;;17.77;100.00
31761;BME280;18335;51.486;7.562;2022-07-06T02:23:32;101044.97;;;18.15;100.00
31761;BME280;18335;51.486;7.562;2022-07-06T02:25:59;101051.34;;;18.15;100.00
31761;BME280;18335;51.486;7.562;2022-07-06T02:28:26;101047.06;;;18.34;100.00
31761;BME280;18335;51.486;7.562;2022-07-06T02:30:54;101041.75;;;17.97;100.00
31761;BME280;18335;51.486;7.562;2022-07-06T02:33:22;101045.09;;;18.07;100.00
31761;BME280;18335;51.486;7.562;2022-07-06T02:35:49;101047.50;;;18.16;100.00
31761;BME280;18335;51.486;7.562;2022-07-06T02:38:16;101050.88;;;18.12;100.00
31761;BME280;18335;51.486;7.562;2022-07-06T02:40:43;101035.81;;;18.14;100.00
31761;BME280;18335;51.486;7.562;2022-07-06T02:43:11;101044.94;;;17.79;100.00
31761;BME280;18335;51.486;7.562;2022-07-06T02:45:39;101042.84;;;18.17;100.00
31761;BME280;18335;51.486;7.562;2022-07-06T02:48:09;101041.38;;;18.00;100.00
31761;BME280;18335;51.486;7.562;2022-07-06T02:50:36;101040.94;;;17.82;100.00
31761;BME280;18335;51.486;7.562;2022-07-06T02:53:04;101036.25;;;17.97;100.00
31761;BME280;18335;51.486;7.562;2022-07-06T02:55:31;101035.94;;;18.06;100.00
31761;BME280;18335;51.486;7.562;2022-07-06T02:57:58;101044.31;;;17.98;100.00
31761;BME280;18335;51.486;7.562;2022-07-06T03:00:25;101045.63;;;17.66;100.00
31761;BME280;18335;51.486;7.562;2022-07-06T03:02:54;101052.16;;;17.51;100.00
31761;BME280;18335;51.486;7.562;2022-07-06T03:05:23;101055.78;;;17.37;100.00
31761;BME280;18335;51.486;7.562;2022-07-06T03:07:50;101059.69;;;17.72;100.00
31761;BME280;18335;51.486;7.562;2022-07-06T03:10:17;101058.34;;;17.24;100.00
31761;BME280;18335;51.486;7.562;2022-07-06T03:12:44;101067.09;;;17.27;100.00
31761;BME280;18335;51.486;7.562;2022-07-06T03:15:11;101063.88;;;17.53;100.00
31761;BME280;18335;51.486;7.562;2022-07-06T03:17:41;101068.81;;;17.28;100.00
31761;BME280;18335;51.486;7.562;2022-07-06T03:20:08;101054.75;;;17.23;100.00
31761;BME280;18335;51.486;7.562;2022-07-06T03:22:36;101068.06;;;17.34;100.00
31761;BME280;18335;51.486;7.562;2022-07-06T03:25:04;101062.16;;;17.37;100.00
31761;BME280;18335;51.486;7.562;2022-07-06T03:27:32;101070.53;;;17.29;100.00
31761;BME280;18335;51.486;7.562;2022-07-06T03:30:01;101079.75;;;17.22;100.00
31761;BME280;18335;51.486;7.562;2022-07-06T03:32:29;101076.09;;;17.06;100.00
31761;BME280;18335;51.486;7.562;2022-07-06T03:34:58;101066.16;;;17.20;100.00
31761;BME280;18335;51.486;7.562;2022-07-06T03:37:25;101075.34;;;17.12;100.00
31761;BME280;18335;51.486;7.562;2022-07-06T03:39:53;101069.94;;;17.19;100.00
31761;BME280;18335;51.486;7.562;2022-07-06T03:42:20;101065.94;;;17.07;100.00
31761;BME280;18335;51.486;7.562;2022-07-06T03:44:48;101073.63;;;17.11;100.00
31761;BME280;18335;51.486;7.562;2022-07-06T03:47:15;101068.97;;;17.12;100.00
31761;BME280;18335;51.486;7.562;2022-07-06T03:49:42;101062.19;;;17.00;100.00
31761;BME280;18335;51.486;7.562;2022-07-06T03:52:09;101057.94;;;17.12;100.00
31761;BME280;18335;51.486;7.562;2022-07-06T03:54:43;101063.91;;;17.01;100.00
31761;BME280;18335;51.486;7.562;2022-07-06T03:57:14;101069.72;;;17.06;100.00
31761;BME280;18335;51.486;7.562;2022-07-06T03:59:41;101070.84;;;16.97;100.00
31761;BME280;18335;51.486;7.562;2022-07-06T04:02:09;101065.19;;;17.13;100.00
31761;BME280;18335;51.486;7.562;2022-07-06T04:04:36;101064.31;;;17.12;100.00
31761;BME280;18335;51.486;7.562;2022-07-06T04:07:04;101064.03;;;17.07;100.00
31761;BME280;18335;51.486;7.562;2022-07-06T04:09:31;101074.13;;;17.30;100.00
31761;BME280;18335;51.486;7.562;2022-07-06T04:11:58;101065.28;;;17.20;100.00
31761;BME280;18335;51.486;7.562;2022-07-06T04:14:26;101073.09;;;17.31;100.00
31761;BME280;18335;51.486;7.562;2022-07-06T04:16:54;101072.59;;;17.42;100.00
31761;BME280;18335;51.486;7.562;2022-07-06T04:19:22;101080.88;;;17.42;100.00
31761;BME280;18335;51.486;7.562;2022-07-06T04:21:48;101085.78;;;17.69;100.00
31761;BME280;18335;51.486;7.562;2022-07-06T04:24:15;101087.69;;;17.68;100.00
31761;BME280;18335;51.486;7.562;2022-07-06T04:26:42;101079.00;;;17.72;100.00
31761;BME280;18335;51.486;7.562;2022-07-06T04:29:09;101075.69;;;17.32;100.00
31761;BME280;18335;51.486;7.562;2022-07-06T04:31:38;101083.31;;;17.59;100.00
31761;BME280;18335;51.486;7.562;2022-07-06T04:34:05;101084.34;;;17.88;100.00
31761;BME280;18335;51.486;7.562;2022-07-06T04:36:32;101087.09;;;17.29;100.00
31761;BME280;18335;51.486;7.562;2022-07-06T04:38:59;101083.91;;;17.17;100.00
31761;BME280;18335;51.486;7.562;2022-07-06T04:41:27;101080.91;;;17.56;100.00
31761;BME280;18335;51.486;7.562;2022-07-06T04:43:54;101084.00;;;17.61;100.00
31761;BME280;18335;51.486;7.562;2022-07-06T04:46:21;101094.06;;;17.54;100.00
31761;BME280;18335;51.486;7.562;2022-07-06T04:48:52;101073.09;;;17.89;100.00
31761;BME280;18335;51.486;7.562;2022-07-06T04:51:25;101075.59;;;18.20;100.00
31761;BME280;18335;51.486;7.562;2022-07-06T04:53:52;101071.53;;;18.37;100.00
31761;BME280;18335;51.486;7.562;2022-07-06T04:56:19;101074.81;;;18.26;100.00
31761;BME280;18335;51.486;7.562;2022-07-06T04:58:47;101086.19;;;18.16;100.00
31761;BME280;18335;51.486;7.562;2022-07-06T05:01:17;101085.59;;;17.71;100.00
31761;BME280;18335;51.486;7.562;2022-07-06T05:03:44;101075.19;;;17.87;100.00
31761;BME280;18335;51.486;7.562;2022-07-06T05:06:14;101076.94;;;18.24;100.00
31761;BME280;18335;51.486;7.562;2022-07-06T05:08:44;101071.31;;;17.82;100.00
31761;BME280;18335;51.486;7.562;2022-07-06T05:11:11;101073.75;;;18.06;100.00
31761;BME280;18335;51.486;7.562;2022-07-06T05:13:37;101069.28;;;18.26;100.00
31761;BME280;18335;51.486;7.562;2022-07-06T05:16:05;101074.19;;;18.24;100.00
31761;BME280;18335;51.486;7.562;2022-07-06T05:18:31;101073.34;;;18.45;100.00
31761;BME280;18335;51.486;7.562;2022-07-06T05:20:59;101075.41;;;18.57;100.00
31761;BME280;18335;51.486;7.562;2022-07-06T05:23:27;101078.63;;;18.61;100.00
31761;BME280;18335;51.486;7.562;2022-07-06T05:25:55;101084.00;;;18.48;100.00
31761;BME280;18335;51.486;7.562;2022-07-06T05:28:22;101075.53;;;18.49;100.00
31761;BME280;18335;51.486;7.562;2022-07-06T05:30:49;101082.59;;;18.37;100.00
31761;BME280;18335;51.486;7.562;2022-07-06T05:33:17;101082.47;;;18.24;100.00
31761;BME280;18335;51.486;7.562;2022-07-06T05:35:44;101085.19;;;18.39;100.00
31761;BME280;18335;51.486;7.562;2022-07-06T05:38:11;101092.47;;;18.10;100.00
31761;BME280;18335;51.486;7.562;2022-07-06T05:40:39;101085.41;;;17.72;100.00
31761;BME280;18335;51.486;7.562;2022-07-06T05:43:08;101085.19;;;18.39;100.00
31761;BME280;18335;51.486;7.562;2022-07-06T05:45:36;101083.13;;;18.47;100.00
31761;BME280;18335;51.486;7.562;2022-07-06T05:48:03;101081.19;;;18.62;100.00
31761;BME280;18335;51.486;7.562;2022-07-06T05:50:48;101086.72;;;18.84;100.00
31761;BME280;18335;51.486;7.562;2022-07-06T05:53:14;101089.16;;;18.93;100.00
31761;BME280;18335;51.486;7.562;2022-07-06T05:55:44;101093.50;;;19.02;100.00
31761;BME280;18335;51.486;7.562;2022-07-06T05:58:11;101092.72;;;19.15;100.00
31761;BME280;18335;51.486;7.562;2022-07-06T06:00:38;101105.25;;;18.47;100.00
31761;BME280;18335;51.486;7.562;2022-07-06T06:03:12;101096.59;;;18.71;100.00
31761;BME280;18335;51.486;7.562;2022-07-06T06:05:40;101102.72;;;18.88;100.00
31761;BME280;18335;51.486;7.562;2022-07-06T06:08:08;101097.44;;;18.15;100.00
31761;BME280;18335;51.486;7.562;2022-07-06T06:10:35;101103.72;;;18.59;100.00
31761;BME280;18335;51.486;7.562;2022-07-06T06:13:07;101100.69;;;18.54;100.00
31761;BME280;18335;51.486;7.562;2022-07-06T06:15:35;101101.78;;;19.02;100.00
31761;BME280;18335;51.486;7.562;2022-07-06T06:18:03;101102.50;;;19.39;100.00
31761;BME280;18335;51.486;7.562;2022-07-06T06:20:30;101107.06;;;19.25;100.00
31761;BME280;18335;51.486;7.562;2022-07-06T06:22:58;101094.78;;;19.55;100.00
31761;BME280;18335;51.486;7.562;2022-07-06T06:25:28;101106.28;;;19.31;100.00
31761;BME280;18335;51.486;7.562;2022-07-06T06:27:55;101104.06;;;19.48;100.00
31761;BME280;18335;51.486;7.562;2022-07-06T06:30:23;101105.34;;;19.45;100.00
31761;BME280;18335;51.486;7.562;2022-07-06T06:32:50;101106.19;;;20.21;100.00
31761;BME280;18335;51.486;7.562;2022-07-06T06:35:17;101105.19;;;19.87;100.00
31761;BME280;18335;51.486;7.562;2022-07-06T06:37:43;101103.38;;;19.67;99.25
31761;BME280;18335;51.486;7.562;2022-07-06T06:40:11;101108.84;;;19.60;99.69
31761;BME280;18335;51.486;7.562;2022-07-06T06:42:37;101116.09;;;19.61;98.26
31761;BME280;18335;51.486;7.562;2022-07-06T06:45:09;101113.50;;;19.87;99.23
31761;BME280;18335;51.486;7.562;2022-07-06T06:47:37;101110.50;;;19.82;94.46
31761;BME280;18335;51.486;7.562;2022-07-06T06:50:05;101105.69;;;19.63;98.38
31761;BME280;18335;51.486;7.562;2022-07-06T06:52:32;101104.97;;;20.30;97.26
31761;BME280;18335;51.486;7.562;2022-07-06T06:54:58;101113.41;;;20.15;99.08
31761;BME280;18335;51.486;7.562;2022-07-06T06:57:25;101118.69;;;20.04;93.49
31761;BME280;18335;51.486;7.562;2022-07-06T06:59:54;101116.38;;;20.14;92.00
31761;BME280;18335;51.486;7.562;2022-07-06T07:02:21;101118.44;;;19.99;92.38
31761;BME280;18335;51.486;7.562;2022-07-06T07:04:49;101118.13;;;20.21;91.23
31761;BME280;18335;51.486;7.562;2022-07-06T07:07:15;101115.72;;;20.59;87.83
31761;BME280;18335;51.486;7.562;2022-07-06T07:09:42;101116.53;;;20.47;92.67
31761;BME280;18335;51.486;7.562;2022-07-06T07:12:09;101118.53;;;20.72;89.10
31761;BME280;18335;51.486;7.562;2022-07-06T07:14:37;101118.91;;;20.56;90.36
31761;BME280;18335;51.486;7.562;2022-07-06T07:17:04;101119.56;;;20.65;87.06
31761;BME280;18335;51.486;7.562;2022-07-06T07:19:30;101123.13;;;20.39;88.70
31761;BME280;18335;51.486;7.562;2022-07-06T07:21:59;101121.31;;;20.72;86.77
31761;BME280;18335;51.486;7.562;2022-07-06T07:24:25;101121.63;;;20.36;91.84
31761;BME280;18335;51.486;7.562;2022-07-06T07:26:52;101116.09;;;20.43;91.77
31761;BME280;18335;51.486;7.562;2022-07-06T07:29:19;101122.13;;;20.60;89.69
31761;BME280;18335;51.486;7.562;2022-07-06T07:31:45;101119.19;;;20.81;86.47
31761;BME280;18335;51.486;7.562;2022-07-06T07:34:12;101130.97;;;21.03;81.56
31761;BME280;18335;51.486;7.562;2022-07-06T07:36:39;101124.78;;;21.40;80.37
31761;BME280;18335;51.486;7.562;2022-07-06T07:39:07;101129.91;;;21.43;82.52
31761;BME280;18335;51.486;7.562;2022-07-06T07:41:34;101130.06;;;21.81;78.95
31761;BME280;18335;51.486;7.562;2022-07-06T07:44:00;101127.72;;;21.84;79.26
31761;BME280;18335;51.486;7.562;2022-07-06T07:46:27;101123.44;;;21.75;79.12
31761;BME280;18335;51.486;7.562;2022-07-06T07:48:54;101138.03;;;21.38;76.67
31761;BME280;18335;51.486;7.562;2022-07-06T07:51:23;101125.84;;;21.39;76.87
31761;BME280;18335;51.486;7.562;2022-07-06T07:53:50;101129.66;;;21.77;76.83
31761;BME280;18335;51.486;7.562;2022-07-06T07:56:18;101129.25;;;21.67;74.12
31761;BME280;18335;51.486;7.562;2022-07-06T07:58:45;101131.59;;;21.50;74.55
31761;BME280;18335;51.486;7.562;2022-07-06T08:01:15;101133.28;;;20.92;73.33
31761;BME280;18335;51.486;7.562;2022-07-06T08:03:42;101133.75;;;21.03;73.94
31761;BME280;18335;51.486;7.562;2022-07-06T08:06:09;101133.31;;;20.99;74.36
31761;BME280;18335;51.486;7.562;2022-07-06T08:08:36;101130.66;;;20.65;78.87
31761;BME280;18335;51.486;7.562;2022-07-06T08:11:03;101125.22;;;21.11;78.62
31761;BME280;18335;51.486;7.562;2022-07-06T08:13:31;101132.06;;;21.21;76.91
31761;BME280;18335;51.486;7.562;2022-07-06T08:15:58;101132.25;;;21.39;76.36
31761;BME280;18335;51.486;7.562;2022-07-06T08:18:25;101123.94;;;21.59;77.33
31761;BME280;18335;51.486;7.562;2022-07-06T08:20:52;101130.25;;;21.99;74.45
31761;BME280;18335;51.486;7.562;2022-07-06T08:23:22;101127.53;;;21.60;74.93
31761;BME280;18335;51.486;7.562;2022-07-06T08:25:48;101125.97;;;22.03;76.10
31761;BME280;18335;51.486;7.562;2022-07-06T08:28:15;101128.63;;;21.52;71.81
31761;BME280;18335;51.486;7.562;2022-07-06T08:30:43;101124.72;;;21.92;69.48
31761;BME280;18335;51.486;7.562;2022-07-06T08:33:10;101120.88;;;21.93;67.91
31761;BME280;18335;51.486;7.562;2022-07-06T08:35:37;101120.91;;;21.74;68.40
31761;BME280;18335;51.486;7.562;2022-07-06T08:38:03;101121.75;;;21.74;69.87
31761;BME280;18335;51.486;7.562;2022-07-06T08:40:34;101113.22;;;21.69;70.37
31761;BME280;18335;51.486;7.562;2022-07-06T08:43:01;101112.78;;;21.72;71.43
31761;BME280;18335;51.486;7.562;2022-07-06T08:45:29;101110.88;;;21.60;71.34
31761;BME280;18335;51.486;7.562;2022-07-06T08:47:59;101114.53;;;21.34;73.58
31761;BME280;18335;51.486;7.562;2022-07-06T08:50:29;101123.97;;;21.26;74.87
31761;BME280;18335;51.486;7.562;2022-07-06T08:52:56;101126.03;;;20.91;71.45
31761;BME280;18335;51.486;7.562;2022-07-06T08:55:24;101117.28;;;21.08;71.02
31761;BME280;18335;51.486;7.562;2022-07-06T08:57:51;101120.44;;;20.65;73.19
31761;BME280;18335;51.486;7.562;2022-07-06T09:00:20;101118.34;;;21.07;72.99
31761;BME280;18335;51.486;7.562;2022-07-06T09:02:48;101119.25;;;21.14;76.15
31761;BME280;18335;51.486;7.562;2022-07-06T09:05:18;101124.38;;;21.43;72.98
31761;BME280;18335;51.486;7.562;2022-07-06T09:07:49;101130.13;;;21.22;76.05
31761;BME280;18335;51.486;7.562;2022-07-06T09:10:18;101138.00;;;21.12;75.27
31761;BME280;18335;51.486;7.562;2022-07-06T09:12:44;101138.63;;;21.07;71.62
31761;BME280;18335;51.486;7.562;2022-07-06T09:15:11;101132.91;;;21.35;69.44
31761;BME280;18335;51.486;7.562;2022-07-06T09:17:39;101129.00;;;21.75;70.04
31761;BME280;18335;51.486;7.562;2022-07-06T09:20:07;101136.28;;;21.70;71.20
31761;BME280;18335;51.486;7.562;2022-07-06T09:22:37;101134.19;;;21.45;72.56
31761;BME280;18335;51.486;7.562;2022-07-06T09:25:05;101133.47;;;21.89;72.52
31761;BME280;18335;51.486;7.562;2022-07-06T09:27:36;101125.56;;;21.99;73.31
31761;BME280;18335;51.486;7.562;2022-07-06T09:30:05;101132.44;;;21.90;72.53
31761;BME280;18335;51.486;7.562;2022-07-06T09:32:38;101129.84;;;21.95;72.82
31761;BME280;18335;51.486;7.562;2022-07-06T09:35:05;101119.56;;;22.02;72.61
31761;BME280;18335;51.486;7.562;2022-07-06T09:37:32;101125.22;;;22.78;67.91
31761;BME280;18335;51.486;7.562;2022-07-06T09:40:00;101121.72;;;22.89;64.67
31761;BME280;18335;51.486;7.562;2022-07-06T09:42:28;101120.91;;;22.82;64.13
31761;BME280;18335;51.486;7.562;2022-07-06T09:44:54;101122.09;;;22.99;59.15
31761;BME280;18335;51.486;7.562;2022-07-06T09:47:21;101116.81;;;23.16;60.41
31761;BME280;18335;51.486;7.562;2022-07-06T09:49:48;101121.72;;;22.89;60.21
31761;BME280;18335;51.486;7.562;2022-07-06T09:52:15;101123.63;;;22.51;61.15
31761;BME280;18335;51.486;7.562;2022-07-06T09:54:42;101123.91;;;23.37;61.07
31761;BME280;18335;51.486;7.562;2022-07-06T09:57:10;101115.50;;;23.19;62.90
31761;BME280;18335;51.486;7.562;2022-07-06T09:59:38;101116.50;;;22.99;62.29
31761;BME280;18335;51.486;7.562;2022-07-06T10:02:06;101110.81;;;23.44;59.45
31761;BME280;18335;51.486;7.562;2022-07-06T10:04:33;101118.91;;;23.21;59.68
31761;BME280;18335;51.486;7.562;2022-07-06T10:07:01;101129.06;;;23.33;54.60
31761;BME280;18335;51.486;7.562;2022-07-06T10:09:28;101108.63;;;23.89;53.92
31761;BME280;18335;51.486;7.562;2022-07-06T10:11:59;101111.34;;;24.32;55.24
31761;BME280;18335;51.486;7.562;2022-07-06T10:14:29;101112.88;;;24.46;54.50
31761;BME280;18335;51.486;7.562;2022-07-06T10:16:57;101114.81;;;25.05;53.17
31761;BME280;18335;51.486;7.562;2022-07-06T10:19:25;101108.97;;;25.06;48.31
31761;BME280;18335;51.486;7.562;2022-07-06T10:21:53;101106.06;;;24.42;48.70
31761;BME280;18335;51.486;7.562;2022-07-06T10:24:20;101102.03;;;24.19;48.36
31761;BME280;18335;51.486;7.562;2022-07-06T10:26:48;101098.13;;;23.66;52.21
31761;BME280;18335;51.486;7.562;2022-07-06T10:29:15;101104.34;;;23.19;53.46
31761;BME280;18335;51.486;7.562;2022-07-06T10:31:45;101106.63;;;23.28;53.46
31761;BME280;18335;51.486;7.562;2022-07-06T10:34:15;101111.03;;;22.86;56.17
31761;BME280;18335;51.486;7.562;2022-07-06T10:36:48;101113.00;;;22.79;55.85
31761;BME280;18335;51.486;7.562;2022-07-06T10:39:16;101109.69;;;22.95;60.00
31761;BME280;18335;51.486;7.562;2022-07-06T10:42:00;101098.50;;;24.31;52.28
31761;BME280;18335;51.486;7.562;2022-07-06T10:44:27;101103.88;;;24.07;52.45
31761;BME280;18335;51.486;7.562;2022-07-06T10:46:56;101099.88;;;24.03;52.43
31761;BME280;18335;51.486;7.562;2022-07-06T10:49:24;101089.78;;;23.66;52.61
31761;BME280;18335;51.486;7.562;2022-07-06T10:51:51;101096.53;;;23.77;52.04
31761;BME280;18335;51.486;7.562;2022-07-06T10:54:20;101092.13;;;23.87;52.97
31761;BME280;18335;51.486;7.562;2022-07-06T10:56:48;101091.97;;;23.82;55.14
31761;BME280;18335;51.486;7.562;2022-07-06T10:59:16;101093.50;;;23.60;50.93
31761;BME280;18335;51.486;7.562;2022-07-06T11:02:12;101093.34;;;23.55;51.62
31761;BME280;18335;51.486;7.562;2022-07-06T11:04:40;101086.94;;;23.91;52.97
31761;BME280;18335;51.486;7.562;2022-07-06T11:07:09;101102.94;;;23.59;52.49
31761;BME280;18335;51.486;7.562;2022-07-06T11:09:36;101098.91;;;23.55;52.67
31761;BME280;18335;51.486;7.562;2022-07-06T11:12:12;101097.34;;;23.41;53.07
31761;BME280;18335;51.486;7.562;2022-07-06T11:14:39;101096.31;;;23.96;53.15
31761;BME280;18335;51.486;7.562;2022-07-06T11:17:09;101088.59;;;24.76;51.58
31761;BME280;18335;51.486;7.562;2022-07-06T11:19:38;101083.28;;;24.45;54.24
31761;BME280;18335;51.486;7.562;2022-07-06T11:22:16;101084.25;;;24.20;52.87
31761;BME280;18335;51.486;7.562;2022-07-06T11:24:42;101071.81;;;24.35;52.06
31761;BME280;18335;51.486;7.562;2022-07-06T11:27:09;101074.19;;;25.20;51.52
31761;BME280;18335;51.486;7.562;2022-07-06T11:29:37;101071.63;;;25.54;50.76
31761;BME280;18335;51.486;7.562;2022-07-06T11:32:05;101067.97;;;25.88;49.94
31761;BME280;18335;51.486;7.562;2022-07-06T11:34:38;101071.47;;;26.07;49.11
31761;BME280;18335;51.486;7.562;2022-07-06T11:37:07;101078.91;;;25.31;46.37
31761;BME280;18335;51.486;7.562;2022-07-06T11:39:36;101076.09;;;25.20;44.82
31761;BME280;18335;51.486;7.562;2022-07-06T11:42:05;101070.59;;;24.90;50.63
31761;BME280;18335;51.486;7.562;2022-07-06T11:44:33;101071.50;;;25.25;48.49
31761;BME280;18335;51.486;7.562;2022-07-06T11:47:00;101071.22;;;25.15;48.39
31761;BME280;18335;51.486;7.562;2022-07-06T11:49:29;101071.69;;;24.89;47.40
31761;BME280;18335;51.486;7.562;2022-07-06T11:51:57;101069.56;;;25.26;48.59
31761;BME280;18335;51.486;7.562;2022-07-06T11:54:26;101072.19;;;25.21;47.75
31761;BME280;18335;51.486;7.562;2022-07-06T11:56:54;101073.25;;;25.50;47.60
31761;BME280;18335;51.486;7.562;2022-07-06T11:59:23;101071.22;;;25.15;47.34
31761;BME280;18335;51.486;7.562;2022-07-06T12:01:57;101072.94;;;25.05;48.42
31761;BME280;18335;51.486;7.562;2022-07-06T12:04:25;101074.41;;;25.19;46.62
31761;BME280;18335;51.486;7.562;2022-07-06T12:06:51;101076.50;;;25.47;46.52
31761;BME280;18335;51.486;7.562;2022-07-06T12:09:20;101074.56;;;25.36;49.05
31761;BME280;18335;51.486;7.562;2022-07-06T12:11:47;101068.00;;;25.65;46.89
31761;BME280;18335;51.486;7.562;2022-07-06T12:14:15;101070.06;;;25.58;47.39
31761;BME280;18335;51.486;7.562;2022-07-06T12:16:43;101063.31;;;24.89;49.31
31761;BME280;18335;51.486;7.562;2022-07-06T12:19:10;101068.44;;;25.04;49.40
31761;BME280;18335;51.486;7.562;2022-07-06T12:21:43;101070.84;;;24.70;47.56
31761;BME280;18335;51.486;7.562;2022-07-06T12:24:17;101056.81;;;25.42;45.43
31761;BME280;18335;51.486;7.562;2022-07-06T12:26:45;101046.56;;;25.94;46.65
31761;BME280;18335;51.486;7.562;2022-07-06T12:29:13;101048.28;;;25.83;43.30
31761;BME280;18335;51.486;7.562;2022-07-06T12:31:44;101040.28;;;25.28;43.87
31761;BME280;18335;51.486;7.562;2022-07-06T12:34:15;101036.16;;;25.77;44.64
31761;BME280;18335;51.486;7.562;2022-07-06T12:36:44;101020.56;;;25.81;44.97
31761;BME280;18335;51.486;7.562;2022-07-06T12:39:12;101025.69;;;25.73;43.80
31761;BME280;18335;51.486;7.562;2022-07-06T12:41:44;101027.34;;;26.37;43.25
31761;BME280;18335;51.486;7.562;2022-07-06T12:44:13;101025.09;;;26.67;42.47
31761;BME280;18335;51.486;7.562;2022-07-06T12:46:41;101022.28;;;26.11;42.40
31761;BME280;18335;51.486;7.562;2022-07-06T12:49:14;101011.63;;;26.19;40.83